sensor_id;sensor_type;location;lat;lon;timestamp;P1;durP1;ratioP1;P2;durP2;ratioP2
7475;SDS011;3779;49.216;8.650;2023-01-23T00:00:26;5.10;;;4.70;;
7475;SDS011;3779;49.216;8.650;2023-01-23T00:03:12;4.80;;;4.40;;
7475;SDS011;3779;49.216;8.650;2023-01-23T00:05:58;4.00;;;3.70;;
7475;SDS011;3779;49.216;8.650;2023-01-23T00:08:45;4.67;;;4.27;;
7475;SDS011;3779;49.216;8.650;2023-01-23T00:11:32;5.10;;;4.70;;
7475;SDS011;3779;49.216;8.650;2023-01-23T00:14:18;5.07;;;4.40;;
7475;SDS011;3779;49.216;8.650;2023-01-23T00:17:04;5.03;;;4.63;;
7475;SDS011;3779;49.216;8.650;2023-01-23T00:19:51;5.50;;;5.00;;
7475;SDS011;3779;49.216;8.650;2023-01-23T00:22:40;5.87;;;5.37;;
7475;SDS011;3779;49.216;8.650;2023-01-23T00:25:27;5.57;;;5.07;;
7475;SDS011;3779;49.216;8.650;2023-01-23T00:28:13;5.83;;;5.40;;
7475;SDS011;3779;49.216;8.650;2023-01-23T00:31:06;5.77;;;5.27;;
7475;SDS011;3779;49.216;8.650;2023-01-23T00:33:55;5.67;;;5.07;;
7475;SDS011;3779;49.216;8.650;2023-01-23T00:36:45;5.67;;;5.17;;
7475;SDS011;3779;49.216;8.650;2023-01-23T00:39:31;5.93;;;5.33;;
7475;SDS011;3779;49.216;8.650;2023-01-23T00:42:17;5.63;;;5.13;;
7475;SDS011;3779;49.216;8.650;2023-01-23T00:45:03;5.60;;;5.10;;
7475;SDS011;3779;49.216;8.650;2023-01-23T00:47:50;5.73;;;5.23;;
7475;SDS011;3779;49.216;8.650;2023-01-23T00:50:36;5.70;;;5.20;;
7475;SDS011;3779;49.216;8.650;2023-01-23T00:53:22;5.57;;;5.13;;
7475;SDS011;3779;49.216;8.650;2023-01-23T00:56:08;5.17;;;4.77;;
7475;SDS011;3779;49.216;8.650;2023-01-23T00:58:54;5.60;;;5.13;;
7475;SDS011;3779;49.216;8.650;2023-01-23T01:01:40;5.50;;;5.00;;
7475;SDS011;3779;49.216;8.650;2023-01-23T01:04:26;5.10;;;4.70;;
7475;SDS011;3779;49.216;8.650;2023-01-23T01:07:12;5.03;;;4.63;;
7475;SDS011;3779;49.216;8.650;2023-01-23T01:09:58;5.10;;;4.67;;
7475;SDS011;3779;49.216;8.650;2023-01-23T01:12:44;5.13;;;4.73;;
7475;SDS011;3779;49.216;8.650;2023-01-23T01:15:31;5.03;;;4.57;;
7475;SDS011;3779;49.216;8.650;2023-01-23T01:18:17;5.10;;;4.70;;
7475;SDS011;3779;49.216;8.650;2023-01-23T01:21:07;5.10;;;4.70;;
7475;SDS011;3779;49.216;8.650;2023-01-23T01:23:55;4.83;;;4.43;;
7475;SDS011;3779;49.216;8.650;2023-01-23T01:26:40;4.97;;;4.57;;
7475;SDS011;3779;49.216;8.650;2023-01-23T01:29:26;5.00;;;4.60;;
7475;SDS011;3779;49.216;8.650;2023-01-23T01:32:12;5.00;;;4.60;;
7475;SDS011;3779;49.216;8.650;2023-01-23T01:34:58;4.90;;;4.50;;
7475;SDS011;3779;49.216;8.650;2023-01-23T01:37:44;4.47;;;4.13;;
7475;SDS011;3779;49.216;8.650;2023-01-23T01:40:33;5.27;;;4.87;;
7475;SDS011;3779;49.216;8.650;2023-01-23T01:43:21;5.23;;;4.77;;
7475;SDS011;3779;49.216;8.650;2023-01-23T01:51:48;5.57;;;5.07;;
7475;SDS011;3779;49.216;8.650;2023-01-23T01:57:42;5.57;;;5.07;;
7475;SDS011;3779;49.216;8.650;2023-01-23T02:00:33;5.13;;;4.73;;
7475;SDS011;3779;49.216;8.650;2023-01-23T02:03:19;5.70;;;5.10;;
7475;SDS011;3779;49.216;8.650;2023-01-23T02:06:05;5.83;;;5.33;;
7475;SDS011;3779;49.216;8.650;2023-01-23T02:09:00;6.17;;;5.60;;
7475;SDS011;3779;49.216;8.650;2023-01-23T02:12:07;5.30;;;4.80;;
7475;SDS011;3779;49.216;8.650;2023-01-23T02:14:53;5.80;;;5.30;;
7475;SDS011;3779;49.216;8.650;2023-01-23T02:17:39;5.37;;;4.87;;
7475;SDS011;3779;49.216;8.650;2023-01-23T02:20:26;5.60;;;5.10;;
7475;SDS011;3779;49.216;8.650;2023-01-23T02:23:19;5.47;;;4.97;;
7475;SDS011;3779;49.216;8.650;2023-01-23T02:26:12;5.60;;;5.10;;
7475;SDS011;3779;49.216;8.650;2023-01-23T02:29:03;5.90;;;5.00;;
7475;SDS011;3779;49.216;8.650;2023-01-23T02:31:52;5.63;;;5.13;;
7475;SDS011;3779;49.216;8.650;2023-01-23T02:34:40;5.10;;;4.70;;
7475;SDS011;3779;49.216;8.650;2023-01-23T02:37:28;5.63;;;5.13;;
7475;SDS011;3779;49.216;8.650;2023-01-23T02:40:19;5.23;;;4.83;;
7475;SDS011;3779;49.216;8.650;2023-01-23T02:43:14;5.43;;;5.03;;
7475;SDS011;3779;49.216;8.650;2023-01-23T02:46:12;5.50;;;4.67;;
7475;SDS011;3779;49.216;8.650;2023-01-23T02:49:00;5.17;;;4.77;;
7475;SDS011;3779;49.216;8.650;2023-01-23T02:51:47;5.67;;;5.17;;
7475;SDS011;3779;49.216;8.650;2023-01-23T02:54:36;5.70;;;5.20;;
7475;SDS011;3779;49.216;8.650;2023-01-23T02:57:23;5.70;;;5.20;;
7475;SDS011;3779;49.216;8.650;2023-01-23T03:00:10;5.67;;;5.17;;
7475;SDS011;3779;49.216;8.650;2023-01-23T03:03:04;5.70;;;5.20;;
7475;SDS011;3779;49.216;8.650;2023-01-23T03:05:52;4.77;;;4.37;;
7475;SDS011;3779;49.216;8.650;2023-01-23T03:08:39;5.50;;;5.00;;
7475;SDS011;3779;49.216;8.650;2023-01-23T03:11:31;5.40;;;5.00;;
7475;SDS011;3779;49.216;8.650;2023-01-23T03:14:21;5.13;;;4.60;;
7475;SDS011;3779;49.216;8.650;2023-01-23T03:17:08;5.27;;;4.80;;
7475;SDS011;3779;49.216;8.650;2023-01-23T03:19:55;4.80;;;4.40;;
7475;SDS011;3779;49.216;8.650;2023-01-23T03:22:42;5.20;;;4.70;;
7475;SDS011;3779;49.216;8.650;2023-01-23T03:25:29;5.17;;;4.67;;
7475;SDS011;3779;49.216;8.650;2023-01-23T03:28:14;5.27;;;4.80;;
7475;SDS011;3779;49.216;8.650;2023-01-23T03:31:21;5.10;;;4.60;;
7475;SDS011;3779;49.216;8.650;2023-01-23T03:34:07;5.27;;;4.77;;
7475;SDS011;3779;49.216;8.650;2023-01-23T03:36:53;5.00;;;4.60;;
7475;SDS011;3779;49.216;8.650;2023-01-23T03:39:39;6.37;;;5.77;;
7475;SDS011;3779;49.216;8.650;2023-01-23T03:42:44;5.50;;;4.93;;
7475;SDS011;3779;49.216;8.650;2023-01-23T03:45:33;5.70;;;5.03;;
7475;SDS011;3779;49.216;8.650;2023-01-23T03:48:20;4.53;;;4.13;;
7475;SDS011;3779;49.216;8.650;2023-01-23T03:51:05;5.10;;;4.70;;
7475;SDS011;3779;49.216;8.650;2023-01-23T03:53:52;4.77;;;4.37;;
7475;SDS011;3779;49.216;8.650;2023-01-23T03:56:38;4.73;;;4.33;;
7475;SDS011;3779;49.216;8.650;2023-01-23T03:59:27;4.87;;;4.47;;
7475;SDS011;3779;49.216;8.650;2023-01-23T04:02:13;4.87;;;4.40;;
7475;SDS011;3779;49.216;8.650;2023-01-23T04:04:59;4.80;;;4.40;;
7475;SDS011;3779;49.216;8.650;2023-01-23T04:07:45;4.90;;;4.50;;
7475;SDS011;3779;49.216;8.650;2023-01-23T04:10:32;4.80;;;4.40;;
7475;SDS011;3779;49.216;8.650;2023-01-23T04:13:23;4.87;;;4.47;;
7475;SDS011;3779;49.216;8.650;2023-01-23T04:16:09;4.93;;;4.53;;
7475;SDS011;3779;49.216;8.650;2023-01-23T04:18:55;7.33;;;4.90;;
7475;SDS011;3779;49.216;8.650;2023-01-23T04:21:42;5.40;;;4.97;;
7475;SDS011;3779;49.216;8.650;2023-01-23T04:24:28;5.70;;;5.10;;
7475;SDS011;3779;49.216;8.650;2023-01-23T04:27:13;6.23;;;5.63;;
7475;SDS011;3779;49.216;8.650;2023-01-23T04:29:59;5.50;;;5.00;;
7475;SDS011;3779;49.216;8.650;2023-01-23T04:32:45;5.50;;;5.00;;
7475;SDS011;3779;49.216;8.650;2023-01-23T04:35:34;5.47;;;5.00;;
7475;SDS011;3779;49.216;8.650;2023-01-23T04:38:21;5.70;;;5.20;;
7475;SDS011;3779;49.216;8.650;2023-01-23T04:41:11;5.53;;;5.03;;
7475;SDS011;3779;49.216;8.650;2023-01-23T04:44:04;5.33;;;4.83;;
7475;SDS011;3779;49.216;8.650;2023-01-23T04:47:19;5.40;;;4.90;;
7475;SDS011;3779;49.216;8.650;2023-01-23T04:50:06;5.53;;;5.10;;
7475;SDS011;3779;49.216;8.650;2023-01-23T04:52:53;5.90;;;5.13;;
7475;SDS011;3779;49.216;8.650;2023-01-23T04:55:39;6.37;;;5.87;;
7475;SDS011;3779;49.216;8.650;2023-01-23T04:58:28;5.67;;;5.17;;
7475;SDS011;3779;49.216;8.650;2023-01-23T05:01:17;6.17;;;5.60;;
7475;SDS011;3779;49.216;8.650;2023-01-23T05:04:07;6.03;;;5.47;;
7475;SDS011;3779;49.216;8.650;2023-01-23T05:06:54;6.30;;;5.70;;
7475;SDS011;3779;49.216;8.650;2023-01-23T05:09:40;6.00;;;5.47;;
7475;SDS011;3779;49.216;8.650;2023-01-23T05:12:27;7.07;;;6.47;;
7475;SDS011;3779;49.216;8.650;2023-01-23T05:15:13;6.80;;;6.20;;
7475;SDS011;3779;49.216;8.650;2023-01-23T05:18:02;6.40;;;5.90;;
7475;SDS011;3779;49.216;8.650;2023-01-23T05:20:48;6.20;;;5.60;;
7475;SDS011;3779;49.216;8.650;2023-01-23T05:23:34;6.83;;;6.20;;
7475;SDS011;3779;49.216;8.650;2023-01-23T05:26:21;6.70;;;6.00;;
7475;SDS011;3779;49.216;8.650;2023-01-23T05:29:07;6.27;;;5.67;;
7475;SDS011;3779;49.216;8.650;2023-01-23T05:31:57;7.10;;;6.50;;
7475;SDS011;3779;49.216;8.650;2023-01-23T05:35:09;6.27;;;5.73;;
7475;SDS011;3779;49.216;8.650;2023-01-23T05:37:57;6.20;;;5.70;;
7475;SDS011;3779;49.216;8.650;2023-01-23T05:40:43;6.63;;;6.03;;
7475;SDS011;3779;49.216;8.650;2023-01-23T05:43:54;4.83;;;4.43;;
7475;SDS011;3779;49.216;8.650;2023-01-23T05:46:57;7.53;;;6.93;;
7475;SDS011;3779;49.216;8.650;2023-01-23T05:49:43;7.80;;;7.10;;
7475;SDS011;3779;49.216;8.650;2023-01-23T05:52:30;8.17;;;7.47;;
7475;SDS011;3779;49.216;8.650;2023-01-23T05:55:16;7.03;;;6.33;;
7475;SDS011;3779;49.216;8.650;2023-01-23T05:58:05;5.97;;;5.47;;
7475;SDS011;3779;49.216;8.650;2023-01-23T06:01:04;6.10;;;5.50;;
7475;SDS011;3779;49.216;8.650;2023-01-23T06:04:25;7.83;;;7.13;;
7475;SDS011;3779;49.216;8.650;2023-01-23T06:07:24;7.50;;;6.80;;
7475;SDS011;3779;49.216;8.650;2023-01-23T06:10:14;7.00;;;6.50;;
7475;SDS011;3779;49.216;8.650;2023-01-23T06:13:00;6.80;;;6.20;;
7475;SDS011;3779;49.216;8.650;2023-01-23T06:15:46;6.07;;;5.53;;
7475;SDS011;3779;49.216;8.650;2023-01-23T06:18:32;6.33;;;5.73;;
7475;SDS011;3779;49.216;8.650;2023-01-23T06:21:18;6.77;;;6.17;;
7475;SDS011;3779;49.216;8.650;2023-01-23T06:24:04;6.70;;;6.10;;
7475;SDS011;3779;49.216;8.650;2023-01-23T06:26:50;5.93;;;5.43;;
7475;SDS011;3779;49.216;8.650;2023-01-23T06:29:36;6.30;;;5.80;;
7475;SDS011;3779;49.216;8.650;2023-01-23T06:32:23;7.67;;;6.97;;
7475;SDS011;3779;49.216;8.650;2023-01-23T06:35:09;7.80;;;7.10;;
7475;SDS011;3779;49.216;8.650;2023-01-23T06:37:58;7.37;;;6.67;;
7475;SDS011;3779;49.216;8.650;2023-01-23T06:40:44;6.93;;;6.33;;
7475;SDS011;3779;49.216;8.650;2023-01-23T06:43:44;7.67;;;6.97;;
7475;SDS011;3779;49.216;8.650;2023-01-23T06:46:36;7.90;;;7.10;;
7475;SDS011;3779;49.216;8.650;2023-01-23T06:49:22;8.57;;;7.77;;
7475;SDS011;3779;49.216;8.650;2023-01-23T06:52:08;8.63;;;7.80;;
7475;SDS011;3779;49.216;8.650;2023-01-23T06:54:54;8.93;;;8.03;;
7475;SDS011;3779;49.216;8.650;2023-01-23T06:57:40;8.93;;;8.13;;
7475;SDS011;3779;49.216;8.650;2023-01-23T07:00:28;8.80;;;8.00;;
7475;SDS011;3779;49.216;8.650;2023-01-23T07:03:17;9.20;;;8.40;;
7475;SDS011;3779;49.216;8.650;2023-01-23T07:06:03;9.07;;;8.27;;
7475;SDS011;3779;49.216;8.650;2023-01-23T07:08:51;8.30;;;7.50;;
7475;SDS011;3779;49.216;8.650;2023-01-23T07:11:37;7.70;;;7.00;;
7475;SDS011;3779;49.216;8.650;2023-01-23T07:14:24;7.90;;;7.20;;
7475;SDS011;3779;49.216;8.650;2023-01-23T07:17:12;7.60;;;6.90;;
7475;SDS011;3779;49.216;8.650;2023-01-23T07:19:58;7.27;;;6.57;;
7475;SDS011;3779;49.216;8.650;2023-01-23T07:22:44;7.67;;;6.87;;
7475;SDS011;3779;49.216;8.650;2023-01-23T07:25:30;7.80;;;7.00;;
7475;SDS011;3779;49.216;8.650;2023-01-23T07:28:16;7.10;;;6.47;;
7475;SDS011;3779;49.216;8.650;2023-01-23T07:31:02;7.00;;;6.40;;
7475;SDS011;3779;49.216;8.650;2023-01-23T07:33:48;7.53;;;6.83;;
7475;SDS011;3779;49.216;8.650;2023-01-23T07:36:34;8.40;;;7.60;;
7475;SDS011;3779;49.216;8.650;2023-01-23T07:39:20;7.63;;;6.93;;
7475;SDS011;3779;49.216;8.650;2023-01-23T07:42:06;7.70;;;6.93;;
7475;SDS011;3779;49.216;8.650;2023-01-23T07:44:52;7.50;;;6.80;;
7475;SDS011;3779;49.216;8.650;2023-01-23T07:47:38;6.53;;;5.93;;
7475;SDS011;3779;49.216;8.650;2023-01-23T07:50:24;8.17;;;7.37;;
7475;SDS011;3779;49.216;8.650;2023-01-23T07:53:10;8.03;;;7.23;;
7475;SDS011;3779;49.216;8.650;2023-01-23T07:55:56;8.23;;;7.43;;
7475;SDS011;3779;49.216;8.650;2023-01-23T07:58:42;8.07;;;7.37;;
7475;SDS011;3779;49.216;8.650;2023-01-23T08:01:27;8.17;;;7.37;;
7475;SDS011;3779;49.216;8.650;2023-01-23T08:04:13;8.33;;;7.53;;
7475;SDS011;3779;49.216;8.650;2023-01-23T08:06:59;8.40;;;7.60;;
7475;SDS011;3779;49.216;8.650;2023-01-23T08:09:45;8.10;;;7.30;;
7475;SDS011;3779;49.216;8.650;2023-01-23T08:12:31;8.23;;;7.43;;
7475;SDS011;3779;49.216;8.650;2023-01-23T08:15:17;8.30;;;7.50;;
7475;SDS011;3779;49.216;8.650;2023-01-23T08:18:03;8.97;;;7.70;;
7475;SDS011;3779;49.216;8.650;2023-01-23T08:20:53;8.33;;;7.53;;
7475;SDS011;3779;49.216;8.650;2023-01-23T08:23:39;9.03;;;8.13;;
7475;SDS011;3779;49.216;8.650;2023-01-23T08:26:25;8.50;;;7.70;;
7475;SDS011;3779;49.216;8.650;2023-01-23T08:29:11;8.90;;;7.97;;
7475;SDS011;3779;49.216;8.650;2023-01-23T08:31:57;8.43;;;7.63;;
7475;SDS011;3779;49.216;8.650;2023-01-23T08:34:43;7.07;;;6.37;;
7475;SDS011;3779;49.216;8.650;2023-01-23T08:37:30;7.67;;;6.87;;
7475;SDS011;3779;49.216;8.650;2023-01-23T08:40:17;6.70;;;5.20;;
7475;SDS011;3779;49.216;8.650;2023-01-23T08:43:03;8.67;;;7.77;;
7475;SDS011;3779;49.216;8.650;2023-01-23T08:45:50;7.27;;;6.53;;
7475;SDS011;3779;49.216;8.650;2023-01-23T08:48:37;8.10;;;7.30;;
7475;SDS011;3779;49.216;8.650;2023-01-23T08:51:24;7.93;;;7.13;;
7475;SDS011;3779;49.216;8.650;2023-01-23T08:54:11;6.20;;;5.47;;
7475;SDS011;3779;49.216;8.650;2023-01-23T08:56:57;9.00;;;8.10;;
7475;SDS011;3779;49.216;8.650;2023-01-23T08:59:43;8.10;;;7.30;;
7475;SDS011;3779;49.216;8.650;2023-01-23T09:02:30;9.87;;;8.97;;
7475;SDS011;3779;49.216;8.650;2023-01-23T09:05:16;10.33;;;9.33;;
7475;SDS011;3779;49.216;8.650;2023-01-23T09:08:02;10.47;;;9.37;;
7475;SDS011;3779;49.216;8.650;2023-01-23T09:10:48;10.63;;;9.53;;
7475;SDS011;3779;49.216;8.650;2023-01-23T09:13:35;9.53;;;8.63;;
7475;SDS011;3779;49.216;8.650;2023-01-23T09:16:22;9.07;;;8.17;;
7475;SDS011;3779;49.216;8.650;2023-01-23T09:19:07;9.80;;;8.90;;
7475;SDS011;3779;49.216;8.650;2023-01-23T09:21:54;9.57;;;8.57;;
7475;SDS011;3779;49.216;8.650;2023-01-23T09:24:41;8.03;;;7.23;;
7475;SDS011;3779;49.216;8.650;2023-01-23T09:27:27;6.77;;;6.07;;
7475;SDS011;3779;49.216;8.650;2023-01-23T09:30:12;3.83;;;3.43;;
7475;SDS011;3779;49.216;8.650;2023-01-23T09:32:58;5.23;;;4.73;;
7475;SDS011;3779;49.216;8.650;2023-01-23T09:35:44;6.73;;;6.03;;
7475;SDS011;3779;49.216;8.650;2023-01-23T09:38:36;5.17;;;4.67;;
7475;SDS011;3779;49.216;8.650;2023-01-23T09:41:22;3.50;;;3.20;;
7475;SDS011;3779;49.216;8.650;2023-01-23T09:44:22;5.03;;;4.53;;
7475;SDS011;3779;49.216;8.650;2023-01-23T09:47:12;6.50;;;5.90;;
7475;SDS011;3779;49.216;8.650;2023-01-23T09:50:34;6.63;;;6.03;;
7475;SDS011;3779;49.216;8.650;2023-01-23T09:53:22;5.87;;;5.23;;
7475;SDS011;3779;49.216;8.650;2023-01-23T09:59:59;6.37;;;5.63;;
7475;SDS011;3779;49.216;8.650;2023-01-23T10:02:23;5.00;;;4.50;;
7475;SDS011;3779;49.216;8.650;2023-01-23T10:05:13;6.07;;;5.47;;
7475;SDS011;3779;49.216;8.650;2023-01-23T10:08:04;6.33;;;5.73;;
7475;SDS011;3779;49.216;8.650;2023-01-23T10:14:22;4.23;;;3.30;;
7475;SDS011;3779;49.216;8.650;2023-01-23T10:17:38;5.80;;;5.20;;
7475;SDS011;3779;49.216;8.650;2023-01-23T10:20:37;7.00;;;6.30;;
7475;SDS011;3779;49.216;8.650;2023-01-23T10:23:56;7.20;;;6.27;;
7475;SDS011;3779;49.216;8.650;2023-01-23T10:26:44;3.93;;;3.50;;
7475;SDS011;3779;49.216;8.650;2023-01-23T10:29:35;5.90;;;5.40;;
7475;SDS011;3779;49.216;8.650;2023-01-23T10:32:25;5.90;;;5.30;;
7475;SDS011;3779;49.216;8.650;2023-01-23T10:35:15;6.90;;;6.20;;
7475;SDS011;3779;49.216;8.650;2023-01-23T10:40:57;7.17;;;6.43;;
7475;SDS011;3779;49.216;8.650;2023-01-23T10:43:58;5.60;;;5.10;;
7475;SDS011;3779;49.216;8.650;2023-01-23T10:46:47;7.00;;;6.30;;
7475;SDS011;3779;49.216;8.650;2023-01-23T10:49:42;7.60;;;6.70;;
7475;SDS011;3779;49.216;8.650;2023-01-23T10:58:03;6.37;;;5.77;;
7475;SDS011;3779;49.216;8.650;2023-01-23T11:00:51;5.57;;;4.77;;
7475;SDS011;3779;49.216;8.650;2023-01-23T11:03:37;5.97;;;5.47;;
7475;SDS011;3779;49.216;8.650;2023-01-23T11:06:29;5.83;;;5.30;;
7475;SDS011;3779;49.216;8.650;2023-01-23T11:09:18;4.20;;;3.80;;
7475;SDS011;3779;49.216;8.650;2023-01-23T11:12:05;7.07;;;6.37;;
7475;SDS011;3779;49.216;8.650;2023-01-23T11:18:21;6.07;;;5.47;;
7475;SDS011;3779;49.216;8.650;2023-01-23T11:21:23;7.27;;;6.57;;
7475;SDS011;3779;49.216;8.650;2023-01-23T11:24:24;6.30;;;5.70;;
7475;SDS011;3779;49.216;8.650;2023-01-23T11:27:18;4.83;;;4.37;;
7475;SDS011;3779;49.216;8.650;2023-01-23T11:30:23;6.50;;;5.90;;
7475;SDS011;3779;49.216;8.650;2023-01-23T11:39:41;4.30;;;3.90;;
7475;SDS011;3779;49.216;8.650;2023-01-23T11:42:32;8.43;;;6.90;;
7475;SDS011;3779;49.216;8.650;2023-01-23T11:45:46;7.83;;;7.03;;
7475;SDS011;3779;49.216;8.650;2023-01-23T11:58:08;7.00;;;6.30;;
7475;SDS011;3779;49.216;8.650;2023-01-23T12:13:11;7.13;;;6.43;;
7475;SDS011;3779;49.216;8.650;2023-01-23T12:16:24;5.07;;;4.57;;
7475;SDS011;3779;49.216;8.650;2023-01-23T12:37:47;6.93;;;6.23;;
7475;SDS011;3779;49.216;8.650;2023-01-23T12:46:52;8.97;;;8.13;;
7475;SDS011;3779;49.216;8.650;2023-01-23T12:49:50;5.60;;;5.10;;
7475;SDS011;3779;49.216;8.650;2023-01-23T12:52:48;5.93;;;5.33;;
7475;SDS011;3779;49.216;8.650;2023-01-23T12:58:43;5.67;;;4.70;;
7475;SDS011;3779;49.216;8.650;2023-01-23T13:01:49;7.17;;;6.27;;
7475;SDS011;3779;49.216;8.650;2023-01-23T13:04:55;5.43;;;4.83;;
7475;SDS011;3779;49.216;8.650;2023-01-23T13:07:54;11.53;;;9.90;;
7475;SDS011;3779;49.216;8.650;2023-01-23T13:11:06;7.43;;;6.03;;
7475;SDS011;3779;49.216;8.650;2023-01-23T13:20:53;6.57;;;5.97;;
7475;SDS011;3779;49.216;8.650;2023-01-23T13:27:52;7.13;;;6.03;;
7475;SDS011;3779;49.216;8.650;2023-01-23T13:30:43;6.90;;;6.20;;
7475;SDS011;3779;49.216;8.650;2023-01-23T13:36:32;7.60;;;6.27;;
7475;SDS011;3779;49.216;8.650;2023-01-23T13:39:21;7.77;;;7.07;;
7475;SDS011;3779;49.216;8.650;2023-01-23T13:51:26;5.00;;;4.60;;
7475;SDS011;3779;49.216;8.650;2023-01-23T13:54:12;5.00;;;4.37;;
7475;SDS011;3779;49.216;8.650;2023-01-23T13:57:20;5.90;;;5.40;;
7475;SDS011;3779;49.216;8.650;2023-01-23T14:00:11;5.70;;;5.10;;
7475;SDS011;3779;49.216;8.650;2023-01-23T14:06:19;6.13;;;5.53;;
7475;SDS011;3779;49.216;8.650;2023-01-23T14:09:24;6.40;;;5.83;;
7475;SDS011;3779;49.216;8.650;2023-01-23T14:12:14;5.50;;;4.90;;
7475;SDS011;3779;49.216;8.650;2023-01-23T14:15:00;6.23;;;4.97;;
7475;SDS011;3779;49.216;8.650;2023-01-23T14:18:11;4.37;;;3.97;;
7475;SDS011;3779;49.216;8.650;2023-01-23T14:21:15;4.57;;;3.73;;
7475;SDS011;3779;49.216;8.650;2023-01-23T14:24:21;3.50;;;3.10;;
7475;SDS011;3779;49.216;8.650;2023-01-23T14:27:17;6.10;;;5.50;;
7475;SDS011;3779;49.216;8.650;2023-01-23T14:30:16;5.87;;;5.30;;
7475;SDS011;3779;49.216;8.650;2023-01-23T14:33:09;7.00;;;6.30;;
7475;SDS011;3779;49.216;8.650;2023-01-23T14:35:56;4.43;;;4.03;;
7475;SDS011;3779;49.216;8.650;2023-01-23T14:38:42;4.40;;;4.00;;
7475;SDS011;3779;49.216;8.650;2023-01-23T14:41:31;6.23;;;5.63;;
7475;SDS011;3779;49.216;8.650;2023-01-23T14:44:25;5.47;;;4.93;;
7475;SDS011;3779;49.216;8.650;2023-01-23T14:47:27;6.07;;;5.47;;
7475;SDS011;3779;49.216;8.650;2023-01-23T14:50:18;5.67;;;5.17;;
7475;SDS011;3779;49.216;8.650;2023-01-23T14:53:11;6.10;;;5.50;;
7475;SDS011;3779;49.216;8.650;2023-01-23T14:55:58;4.70;;;4.30;;
7475;SDS011;3779;49.216;8.650;2023-01-23T14:58:46;5.63;;;5.13;;
7475;SDS011;3779;49.216;8.650;2023-01-23T15:01:32;6.43;;;5.83;;
7475;SDS011;3779;49.216;8.650;2023-01-23T15:04:20;6.63;;;5.07;;
7475;SDS011;3779;49.216;8.650;2023-01-23T15:07:11;6.20;;;5.60;;
7475;SDS011;3779;49.216;8.650;2023-01-23T15:10:01;5.67;;;5.03;;
7475;SDS011;3779;49.216;8.650;2023-01-23T15:15:55;7.03;;;6.33;;
7475;SDS011;3779;49.216;8.650;2023-01-23T15:18:57;6.57;;;5.97;;
7475;SDS011;3779;49.216;8.650;2023-01-23T15:21:47;9.37;;;7.30;;
7475;SDS011;3779;49.216;8.650;2023-01-23T15:24:33;6.37;;;5.77;;
7475;SDS011;3779;49.216;8.650;2023-01-23T15:27:40;6.07;;;5.53;;
7475;SDS011;3779;49.216;8.650;2023-01-23T15:33:21;6.13;;;5.63;;
7475;SDS011;3779;49.216;8.650;2023-01-23T15:36:22;6.77;;;6.17;;
7475;SDS011;3779;49.216;8.650;2023-01-23T15:39:18;4.47;;;3.63;;
7475;SDS011;3779;49.216;8.650;2023-01-23T15:44:56;6.03;;;5.40;;
7475;SDS011;3779;49.216;8.650;2023-01-23T15:47:45;7.27;;;5.67;;
7475;SDS011;3779;49.216;8.650;2023-01-23T15:50:31;5.97;;;5.47;;
7475;SDS011;3779;49.216;8.650;2023-01-23T15:53:17;7.37;;;6.67;;
7475;SDS011;3779;49.216;8.650;2023-01-23T15:56:03;8.43;;;7.63;;
7475;SDS011;3779;49.216;8.650;2023-01-23T15:58:52;7.67;;;6.80;;
7475;SDS011;3779;49.216;8.650;2023-01-23T16:01:38;7.90;;;7.10;;
7475;SDS011;3779;49.216;8.650;2023-01-23T16:04:24;8.27;;;6.67;;
7475;SDS011;3779;49.216;8.650;2023-01-23T16:07:24;6.67;;;5.77;;
7475;SDS011;3779;49.216;8.650;2023-01-23T16:10:18;6.57;;;5.97;;
7475;SDS011;3779;49.216;8.650;2023-01-23T16:13:05;8.03;;;7.00;;
7475;SDS011;3779;49.216;8.650;2023-01-23T16:15:51;9.30;;;8.40;;
7475;SDS011;3779;49.216;8.650;2023-01-23T16:18:38;9.43;;;8.53;;
7475;SDS011;3779;49.216;8.650;2023-01-23T16:21:26;22.30;;;10.90;;
7475;SDS011;3779;49.216;8.650;2023-01-23T16:24:20;11.30;;;8.70;;
7475;SDS011;3779;49.216;8.650;2023-01-23T16:27:10;9.20;;;8.30;;
7475;SDS011;3779;49.216;8.650;2023-01-23T16:30:01;8.37;;;7.37;;
7475;SDS011;3779;49.216;8.650;2023-01-23T16:32:47;7.67;;;6.93;;
7475;SDS011;3779;49.216;8.650;2023-01-23T16:35:33;7.10;;;6.40;;
7475;SDS011;3779;49.216;8.650;2023-01-23T16:38:22;7.03;;;6.33;;
7475;SDS011;3779;49.216;8.650;2023-01-23T16:41:10;6.73;;;6.07;;
7475;SDS011;3779;49.216;8.650;2023-01-23T16:43:56;10.17;;;9.27;;
7475;SDS011;3779;49.216;8.650;2023-01-23T16:46:45;9.47;;;7.57;;
7475;SDS011;3779;49.216;8.650;2023-01-23T16:49:32;9.57;;;8.57;;
7475;SDS011;3779;49.216;8.650;2023-01-23T16:52:18;8.50;;;7.60;;
7475;SDS011;3779;49.216;8.650;2023-01-23T16:55:23;9.03;;;8.13;;
7475;SDS011;3779;49.216;8.650;2023-01-23T16:58:18;9.47;;;8.57;;
7475;SDS011;3779;49.216;8.650;2023-01-23T17:01:07;8.33;;;7.33;;
7475;SDS011;3779;49.216;8.650;2023-01-23T17:03:59;8.30;;;7.50;;
7475;SDS011;3779;49.216;8.650;2023-01-23T17:06:48;9.67;;;8.03;;
7475;SDS011;3779;49.216;8.650;2023-01-23T17:09:34;8.37;;;7.57;;
7475;SDS011;3779;49.216;8.650;2023-01-23T17:12:24;8.17;;;7.40;;
7475;SDS011;3779;49.216;8.650;2023-01-23T17:15:32;7.50;;;6.70;;
7475;SDS011;3779;49.216;8.650;2023-01-23T17:18:26;8.20;;;7.40;;
7475;SDS011;3779;49.216;8.650;2023-01-23T17:21:16;7.53;;;6.80;;
7475;SDS011;3779;49.216;8.650;2023-01-23T17:24:04;7.30;;;6.60;;
7475;SDS011;3779;49.216;8.650;2023-01-23T17:26:50;6.83;;;6.20;;
7475;SDS011;3779;49.216;8.650;2023-01-23T17:29:36;7.83;;;6.67;;
7475;SDS011;3779;49.216;8.650;2023-01-23T17:32:27;7.37;;;6.57;;
7475;SDS011;3779;49.216;8.650;2023-01-23T17:35:20;7.43;;;6.73;;
7475;SDS011;3779;49.216;8.650;2023-01-23T17:38:14;8.63;;;7.83;;
7475;SDS011;3779;49.216;8.650;2023-01-23T17:41:13;9.40;;;7.93;;
7475;SDS011;3779;49.216;8.650;2023-01-23T17:44:00;10.93;;;9.20;;
7475;SDS011;3779;49.216;8.650;2023-01-23T17:46:46;9.63;;;8.63;;
7475;SDS011;3779;49.216;8.650;2023-01-23T17:49:32;10.17;;;8.50;;
7475;SDS011;3779;49.216;8.650;2023-01-23T17:52:18;9.63;;;8.63;;
7475;SDS011;3779;49.216;8.650;2023-01-23T17:55:09;13.47;;;10.87;;
7475;SDS011;3779;49.216;8.650;2023-01-23T17:58:08;14.73;;;11.70;;
7475;SDS011;3779;49.216;8.650;2023-01-23T18:00:54;15.13;;;11.80;;
7475;SDS011;3779;49.216;8.650;2023-01-23T18:03:40;17.30;;;14.10;;
7475;SDS011;3779;49.216;8.650;2023-01-23T18:06:26;16.40;;;11.57;;
7475;SDS011;3779;49.216;8.650;2023-01-23T18:09:12;11.87;;;10.67;;
7475;SDS011;3779;49.216;8.650;2023-01-23T18:11:58;11.20;;;10.10;;
7475;SDS011;3779;49.216;8.650;2023-01-23T18:14:50;10.30;;;9.30;;
7475;SDS011;3779;49.216;8.650;2023-01-23T18:18:18;9.10;;;8.20;;
7475;SDS011;3779;49.216;8.650;2023-01-23T18:21:03;9.60;;;8.60;;
7475;SDS011;3779;49.216;8.650;2023-01-23T18:23:50;9.43;;;8.43;;
7475;SDS011;3779;49.216;8.650;2023-01-23T18:26:45;9.63;;;8.73;;
7475;SDS011;3779;49.216;8.650;2023-01-23T18:29:48;9.57;;;8.57;;
7475;SDS011;3779;49.216;8.650;2023-01-23T18:42:01;6.07;;;5.00;;
7475;SDS011;3779;49.216;8.650;2023-01-23T18:45:00;5.60;;;4.70;;
7475;SDS011;3779;49.216;8.650;2023-01-23T18:47:48;7.63;;;6.83;;
7475;SDS011;3779;49.216;8.650;2023-01-23T18:50:35;7.47;;;6.77;;
7475;SDS011;3779;49.216;8.650;2023-01-23T18:53:45;8.50;;;7.60;;
7475;SDS011;3779;49.216;8.650;2023-01-23T18:59:40;9.67;;;8.13;;
7475;SDS011;3779;49.216;8.650;2023-01-23T19:02:44;8.10;;;6.83;;
7475;SDS011;3779;49.216;8.650;2023-01-23T19:05:35;8.57;;;7.73;;
7475;SDS011;3779;49.216;8.650;2023-01-23T19:08:26;8.30;;;7.50;;
7475;SDS011;3779;49.216;8.650;2023-01-23T19:11:26;8.23;;;7.40;;
7475;SDS011;3779;49.216;8.650;2023-01-23T19:17:29;10.50;;;8.80;;
7475;SDS011;3779;49.216;8.650;2023-01-23T19:20:21;9.90;;;8.90;;
7475;SDS011;3779;49.216;8.650;2023-01-23T19:23:37;10.60;;;9.50;;
7475;SDS011;3779;49.216;8.650;2023-01-23T19:26:42;8.27;;;7.47;;
7475;SDS011;3779;49.216;8.650;2023-01-23T19:29:28;10.57;;;9.47;;
7475;SDS011;3779;49.216;8.650;2023-01-23T19:32:14;16.70;;;12.77;;
7475;SDS011;3779;49.216;8.650;2023-01-23T19:35:00;16.80;;;13.93;;
7475;SDS011;3779;49.216;8.650;2023-01-23T19:37:47;14.03;;;11.63;;
7475;SDS011;3779;49.216;8.650;2023-01-23T19:40:33;9.87;;;8.57;;
7475;SDS011;3779;49.216;8.650;2023-01-23T19:43:20;10.93;;;8.63;;
7475;SDS011;3779;49.216;8.650;2023-01-23T19:46:06;10.43;;;8.30;;
7475;SDS011;3779;49.216;8.650;2023-01-23T19:48:53;9.50;;;8.60;;
7475;SDS011;3779;49.216;8.650;2023-01-23T19:51:40;6.27;;;5.53;;